Weather observations for the past three days for
Igiugig
Metric (Imperial)
Date Time (akdt) Wind (kph) Vis. (km) Weather Sky Cond. Temperature (ºC) Relative Humidity Wind Chill (°C) Heat Index (°C) Pressure Precipitation (cm)
Air Dwpt 6 hour altimeter (cm) sea level (mb) 1 hr 3 hr 6 hr
Max. Min.
10 07:56 S 19 16.09 Overcast SCT014 BKN050 OVC065 -1.1 -3.3 85% -6 74.93 999.7
10 06:56 S 20 G 33 16.09 Overcast OVC014 -1.7 -3.3 89% -7 74.9 999.4
10 05:56 S 28 G 41 16.09 Overcast OVC012 -1.1 -2.8 88% -7 74.85 998.7
10 04:56 S 28 G 43 3.22 Light Snow Fog/Mist BKN007 OVC011 -0.6 -1.1 96% -7 74.8 998.1
10 03:56 S 28 G 39 16.09 Overcast BKN070 OVC120 0.6 -1.1 7.2 0.6 89% -5 74.75 997.5
10 02:56 S 22 G 33 16.09 Overcast OVC100 2.2 0 86% -2 74.7 996.6
10 01:56 S 13 16.09 Overcast OVC100 2.2 -1.1 79% -1 74.63 995.9
10 00:56 S 11 16.09 Overcast OVC100 2.2 -1.7 76% -1 74.57 995.1
09 23:56 S 9 16.09 Overcast OVC085 3.9 -1.7 67% 2 74.55 994.9
09 22:56 SW 7 16.09 Overcast OVC100 6.1 -1.7 58% 5 74.52 994.4
09 21:56 Calm 16.09 A Few Clouds FEW100 7.2 -2.2 10.6 7.2 52% 74.5 994.1
09 20:56 Calm 16.09 Fair CLR 8.9 -3.3 42% 74.47 993.7
09 19:56 NE 7 16.09 A Few Clouds FEW085 8.9 -2.8 44% 8 74.47 993.8
09 18:56 Vrbl 6 16.09 Fair CLR 10 -2.8 41% 74.47 993.8
09 17:56 NE 13 16.09 A Few Clouds FEW080 8.9 -2.2 46% 7 74.5 994.1
09 16:56 N 13 16.09 Partly Cloudy SCT075 10 -2.2 43% 8 74.52 994.3
09 15:56 NE 7 16.09 Partly Cloudy FEW060 SCT075 8.3 -1.7 9.4 3.9 50% 7 74.55 994.8
09 14:56 NE 11 16.09 Partly Cloudy FEW048 SCT065 8.3 -1.1 52% 7 74.55 994.9
09 13:56 NE 9 16.09 A Few Clouds FEW060 8.3 -0.6 54% 7 74.57 995.0
09 12:56 Vrbl 11 16.09 Fair CLR 8.3 -0.6 54% 7 74.57 995.0
09 11:56 N 15 16.09 A Few Clouds FEW030 7.2 0 61% 5 74.57 995.2
09 10:56 Calm 12.87 Fair CLR 5.6 0 68% 74.63 995.8
09 09:56 S 6 16.09 Fair CLR 3.9 0.6 3.9 -3.9 79% 74.65 996.0
09 08:56 S 11 16.09 Fair CLR 0 -0.6 96% -3 74.68 996.4
09 07:56 SE 9 16.09 Fair CLR -2.2 -2.2 100% -5 74.68 996.5
09 06:56 Calm 16.09 Fair CLR -3.9 -3.9 100% 74.73 997.0
09 05:56 S 11 16.09 A Few Clouds FEW001 -3.9 -3.9 100% -8 74.73 997.2
09 04:56 S 7 16.09 Partly Cloudy SCT001 -3.9 -4.4 96% -7 74.78 997.8
09 03:56 S 9 16.09 Fair CLR -3.3 -3.3 2.8 -3.3 100% -7 74.8 998.3
09 02:56 S 6 16.09 Fair CLR -2.8 -3.3 96% 74.88 999.0
09 01:56 Calm 16.09 Fair CLR -1.7 -2.2 96% 74.9 999.5
09 00:56 Vrbl 6 16.09 Fair CLR -1.1 -2.2 92% 74.96 1000.1
08 23:56 N 6 16.09 Fair CLR -1.1 -1.7 96% 75.01 1000.7
08 22:56 N 6 16.09 Fair CLR 1.1 0.6 97% 75.03 1001.2
08 21:56 NE 6 16.09 Fair CLR 2.8 0.6 7.2 2.8 86% 75.06 1001.4
08 20:56 NE 6 16.09 Fair CLR 3.9 0.6 79% 75.08 1001.9
08 19:56 N 13 16.09 Partly Cloudy SCT065 4.4 0.6 77% 2 75.11 1002.2
08 18:56 N 13 16.09 A Few Clouds FEW050 3.3 0.6 83% 0 75.16 1002.7
08 17:56 N 15 16.09 A Few Clouds FEW065 6.1 0 65% 3 75.18 1003.3
08 16:56 NW 15 16.09 Overcast FEW031 OVC060 5.6 0 68% 3 75.23 1003.9
08 15:56 N 13 16.09 Overcast OVC070 4.4 0 6.1 2.8 73% 2 75.29 1004.7
08 14:56 N 11 16.09 Overcast OVC080 2.8 0.6 86% 0 75.31 1005.0
08 13:56 NE 15 16.09 Fair CLR 3.9 0.6 79% 1 75.34 1005.4
08 12:56 NE 17 16.09 Mostly Cloudy BKN090 4.4 -0.6 70% 1 75.39 1006.1
08 11:56 NE 9 16.09 Mostly Cloudy FEW065 BKN085 2.8 -0.6 79% 1 75.44 1006.6
08 10:56 NW 7 16.09 A Few Clouds FEW065 5 0 70% 4 75.49 1007.2
08 09:56 Vrbl 6 16.09 Mostly Cloudy BKN060 3.3 -0.6 4.4 -3.3 76% 75.54 1007.9
08 08:56 Calm 16.09 Fair CLR 0.6 0 96% 75.57 1008.3
08 07:56 Calm 16.09 Fair CLR -0.6 -0.6 100% 75.59 1008.6
08 06:56 Calm 16.09 Mostly Cloudy BKN085 -3.3 -3.3 100% 75.62 1009.1
08 05:56 Calm 16.09 A Few Clouds FEW090 -2.8 -3.3 96% 75.67 1009.5
08 04:56 Calm 16.09 Overcast BKN070 OVC085 -2.2 -2.2 100% 75.69 1010.0
08 03:56 Calm 16.09 A Few Clouds FEW060 -2.2 -2.8 1.7 -2.2 96% 75.72 1010.5
08 02:56 Calm 16.09 Partly Cloudy SCT085 -1.7 -2.2 96% 75.77 1010.9
08 01:56 E 7 16.09 A Few Clouds FEW085 -1.1 -1.7 96% -3 75.77 1011.2
08 00:56 NE 9 16.09 Overcast OVC060 0.6 -0.6 92% -2 75.82 1011.5
07 23:56 N 7 16.09 Mostly Cloudy BKN060 BKN100 0 -1.1 92% -2 75.84 1011.9
07 22:56 Calm 16.09 Overcast OVC100 0 -1.1 92% 75.84 1012.1
07 21:56 NE 9 16.09 Mostly Cloudy SCT060 BKN100 1.7 0 6.1 1.7 89% -1 75.87 1012.2
07 20:56 N 9 16.09 Overcast OVC100 2.8 0 82% 1 75.87 1012.5
07 19:56 N 7 16.09 Overcast OVC100 5 0.6 73% 4 75.92 1013.0
07 18:56 N 7 16.09 Fair CLR 4.4 0 73% 3 75.95 1013.5
07 17:56 N 9 16.09 Overcast OVC095 4.4 -0.6 70% 2 76 1014.2
07 16:56 NE 9 16.09 Overcast OVC095 3.3 -1.7 70% 1 76.07 1014.9
07 15:56 N 9 16.09 Overcast OVC095 3.9 -1.1 4.4 0.6 70% 2 76.1 1015.5
07 14:56 N 7 16.09 Overcast OVC095 2.2 -1.1 79% 0 76.15 1016.1
07 13:56 NE 7 16.09 Overcast OVC095 3.3 -0.6 76% 2 76.17 1016.6
07 12:56 NE 9 16.09 Overcast OVC095 1.7 -0.6 85% -1 76.23 1017.1
07 11:56 NE 7 16.09 Overcast OVC090 1.1 -1.1 85% -1 76.25 1017.5
07 10:56 NE 9 16.09 Overcast OVC090 1.1 -1.1 85% -1 76.28 1017.8
07 09:56 N 6 16.09 Overcast OVC090 0.6 -1.1 1.1 -2.8 89% 76.3 1018.0
07 08:56 Calm 16.09 Overcast OVC090 0.6 -0.6 92% 76.3 1018.2
Date Time (akdt) Wind (kph) Vis. (km) Weather Sky Cond. Air Dwpt Max. Min. Relative Humidity Wind Chill (°C) Heat Index (°C) altimeter (cm) sea level (mb) 1 hr 3 hr 6 hr
6 hour
Temperature (ºC) Pressure Precipitation (cm)